Time;durP1;ratioP1;P1;durP2;ratioP2;P2;SDS_P1;SDS_P2;PMS_P1;PMS_P2;Temp;Humidity;BMP_temperature;BMP_pressure;BME280_temperature;BME280_humidity;BME280_pressure;Samples;Min_cycle;Max_cycle;Signal;HPM_P1;HPM_P2
2023/01/14 00:01:30;;;;;;;;;;;1.90;93.10;;;;;;5074635;28;19942;-87
2023/01/14 00:03:56;;;;;;;;;;;2.00;93.40;;;;;;5074545;28;19948;-88
2023/01/14 00:06:26;;;;;;;;;;;2.00;93.40;;;;;;5074106;28;19949;-87
2023/01/14 00:08:55;;;;;;;;;;;2.00;93.30;;;;;;5074273;28;20031;-87
2023/01/14 00:14:05;;;;;;;;;;;2.20;93.50;;;;;;5074113;28;20021;-87
2023/01/14 00:16:31;;;;;;;;;;;2.20;92.70;;;;;;5073983;28;20007;-87
2023/01/14 00:18:56;;;;;;;;;;;2.10;92.20;;;;;;5074213;28;19942;-87
2023/01/14 00:21:22;;;;;;;;;;;2.00;92.30;;;;;;5074160;28;20398;-87
2023/01/14 00:23:47;;;;;;;;;;;2.00;92.30;;;;;;5056940;28;19945;-88
2023/01/14 00:26:14;;;;;;;;;;;1.90;91.60;;;;;;5057357;28;19943;-88
2023/01/14 00:28:40;;;;;;;;;;;1.90;91.70;;;;;;5074027;28;19937;-87
2023/01/14 00:31:09;;;;;;;;;;;2.00;91.80;;;;;;5073953;28;20408;-87
2023/01/14 00:33:36;;;;;;;;;;;1.90;91.90;;;;;;5073701;28;19967;-87
2023/01/14 00:36:02;;;;;;;;;;;1.90;92.30;;;;;;5073842;28;20003;-87
2023/01/14 00:38:28;;;;;;;;;;;1.90;92.30;;;;;;5073873;28;19937;-87
2023/01/14 00:41:04;;;;;;;;;;;1.90;92.30;;;;;;5074066;28;19942;-87
2023/01/14 00:43:29;;;;;;;;;;;2.00;92.30;;;;;;5073354;28;20394;-87
2023/01/14 00:45:55;;;;;;;;;;;2.00;92.40;;;;;;5073971;28;19947;-87
2023/01/14 00:48:21;;;;;;;;;;;1.90;92.00;;;;;;5073904;28;20329;-87
2023/01/14 00:50:46;;;;;;;;;;;1.80;92.30;;;;;;5073586;28;19938;-87
2023/01/14 00:53:12;;;;;;;;;;;1.80;92.50;;;;;;5073362;28;20432;-87
2023/01/14 00:55:37;;;;;;;;;;;1.70;92.80;;;;;;5073310;28;19985;-87
2023/01/14 00:58:03;;;;;;;;;;;1.70;93.30;;;;;;5073540;28;19942;-87
2023/01/14 01:00:28;;;;;;;;;;;1.80;93.30;;;;;;5073409;28;19938;-87
2023/01/14 01:02:54;;;;;;;;;;;1.90;93.50;;;;;;5073515;28;19952;-87
2023/01/14 01:05:19;;;;;;;;;;;1.90;93.50;;;;;;5073386;28;19939;-87
2023/01/14 01:07:45;;;;;;;;;;;1.90;93.40;;;;;;5073352;28;19978;-87
2023/01/14 01:10:11;;;;;;;;;;;2.00;93.60;;;;;;5073559;28;20030;-87
2023/01/14 01:12:37;;;;;;;;;;;2.10;92.90;;;;;;5083706;22;20430;-87
2023/01/14 01:15:02;;;;;;;;;;;2.10;92.80;;;;;;5093364;28;19973;-87
2023/01/14 01:17:28;;;;;;;;;;;2.10;92.70;;;;;;5093433;28;19943;-88
2023/01/14 01:19:54;;;;;;;;;;;2.10;92.50;;;;;;5093432;28;19937;-88
2023/01/14 01:22:20;;;;;;;;;;;2.00;92.50;;;;;;5093610;28;19937;-87
2023/01/14 01:24:46;;;;;;;;;;;2.00;92.30;;;;;;5092928;28;20391;-87
2023/01/14 01:27:11;;;;;;;;;;;2.00;92.10;;;;;;5093257;28;20032;-88
2023/01/14 01:29:37;;;;;;;;;;;2.00;92.20;;;;;;5093216;28;19947;-87
2023/01/14 01:32:02;;;;;;;;;;;1.90;92.30;;;;;;5093280;28;19945;-87
2023/01/14 01:34:28;;;;;;;;;;;1.90;92.30;;;;;;5092916;28;19944;-87
2023/01/14 01:36:54;;;;;;;;;;;1.80;92.30;;;;;;5093124;28;19960;-87
2023/01/14 01:39:19;;;;;;;;;;;1.70;92.40;;;;;;5092873;28;20343;-87
2023/01/14 01:41:45;;;;;;;;;;;1.80;92.30;;;;;;5093166;28;20434;-87
2023/01/14 01:44:13;;;;;;;;;;;1.90;92.20;;;;;;5092943;28;20083;-87
2023/01/14 01:46:40;;;;;;;;;;;1.80;91.90;;;;;;5093148;28;19997;-87
2023/01/14 01:49:10;;;;;;;;;;;1.80;92.00;;;;;;5093123;28;19944;-87
2023/01/14 01:51:56;;;;;;;;;;;1.70;92.00;;;;;;5074955;28;20320;-87
2023/01/14 01:54:23;;;;;;;;;;;1.80;92.00;;;;;;5071832;28;19978;-87
2023/01/14 01:56:49;;;;;;;;;;;1.80;91.80;;;;;;5072726;28;19995;-87
2023/01/14 01:59:21;;;;;;;;;;;1.90;91.10;;;;;;5072871;28;20436;-87
2023/01/14 02:01:47;;;;;;;;;;;1.90;91.00;;;;;;5072834;28;20391;-87
2023/01/14 02:04:13;;;;;;;;;;;1.90;90.70;;;;;;5072294;28;19943;-87
2023/01/14 02:06:38;;;;;;;;;;;1.80;90.10;;;;;;5072755;28;19948;-87
2023/01/14 02:09:05;;;;;;;;;;;1.80;90.20;;;;;;5072751;28;20023;-87
2023/01/14 02:11:39;;;;;;;;;;;1.80;90.30;;;;;;5072693;28;19946;-87
2023/01/14 02:14:17;;;;;;;;;;;1.70;90.50;;;;;;5072294;28;19974;-87
2023/01/14 02:16:42;;;;;;;;;;;1.80;90.80;;;;;;5072592;28;20413;-87
2023/01/14 02:19:22;;;;;;;;;;;1.80;90.60;;;;;;5072641;28;19986;-87
2023/01/14 02:22:23;;;;;;;;;;;1.80;90.70;;;;;;5072625;28;19938;-87
2023/01/14 02:24:54;;;;;;;;;;;1.90;90.70;;;;;;5008297;28;20467;-87
2023/01/14 02:27:38;;;;;;;;;;;1.80;90.00;;;;;;5045635;28;20041;-87
2023/01/14 02:30:20;;;;;;;;;;;1.80;89.90;;;;;;5052795;28;20030;-87
2023/01/14 02:33:00;;;;;;;;;;;1.70;90.00;;;;;;5053500;28;19953;-87
2023/01/14 02:35:29;;;;;;;;;;;1.60;90.10;;;;;;5054361;28;20428;-87
2023/01/14 02:38:00;;;;;;;;;;;1.50;89.90;;;;;;5072514;28;19936;-87
2023/01/14 02:40:25;;;;;;;;;;;1.40;89.70;;;;;;5072481;28;19945;-87
2023/01/14 02:45:44;;;;;;;;;;;1.30;89.80;;;;;;5072728;28;19967;-87
2023/01/14 02:48:12;;;;;;;;;;;1.30;89.90;;;;;;5072403;28;19937;-88
2023/01/14 02:50:37;;;;;;;;;;;1.30;89.80;;;;;;5073230;28;20430;-87
2023/01/14 02:53:06;;;;;;;;;;;1.40;89.40;;;;;;5075545;28;19966;-87
2023/01/14 02:55:33;;;;;;;;;;;1.40;89.80;;;;;;5075820;28;19967;-87
2023/01/14 02:57:58;;;;;;;;;;;1.40;90.10;;;;;;5075803;28;20422;-87
2023/01/14 03:00:34;;;;;;;;;;;1.50;90.50;;;;;;5075754;28;20029;-87
2023/01/14 03:03:18;;;;;;;;;;;1.40;90.50;;;;;;5075669;28;19977;-87
2023/01/14 03:05:52;;;;;;;;;;;1.40;90.30;;;;;;5075690;28;19987;-87
2023/01/14 03:08:24;;;;;;;;;;;1.20;91.30;;;;;;5075902;28;19963;-87
2023/01/14 03:10:58;;;;;;;;;;;1.20;91.40;;;;;;5075573;28;19944;-87
2023/01/14 03:13:43;;;;;;;;;;;1.20;91.00;;;;;;5075139;28;20057;-87
2023/01/14 03:16:19;;;;;;;;;;;1.20;90.90;;;;;;5075663;28;20055;-87
2023/01/14 03:18:45;;;;;;;;;;;1.20;90.90;;;;;;5075444;28;19939;-87
2023/01/14 03:21:37;;;;;;;;;;;1.30;90.90;;;;;;5075386;28;19961;-87
2023/01/14 03:24:10;;;;;;;;;;;1.30;91.00;;;;;;5071889;28;19957;-87
2023/01/14 03:26:37;;;;;;;;;;;1.30;91.60;;;;;;5075301;28;20400;-87
2023/01/14 03:29:08;;;;;;;;;;;1.40;91.10;;;;;;5075180;28;20388;-87
2023/01/14 03:31:35;;;;;;;;;;;1.40;90.90;;;;;;5057201;28;19942;-87
2023/01/14 03:34:04;;;;;;;;;;;1.40;90.80;;;;;;5074961;28;19955;-88
2023/01/14 03:36:32;;;;;;;;;;;1.20;90.50;;;;;;5075365;28;20412;-87
2023/01/14 03:39:00;;;;;;;;;;;1.10;90.50;;;;;;5075062;28;20032;-87
2023/01/14 03:44:18;;;;;;;;;;;1.10;91.00;;;;;;5074993;28;20043;-87
2023/01/14 03:46:44;;;;;;;;;;;1.10;91.10;;;;;;5074911;28;19958;-88
2023/01/14 03:49:09;;;;;;;;;;;1.20;91.40;;;;;;5074818;28;20391;-87
2023/01/14 03:51:55;;;;;;;;;;;1.10;91.20;;;;;;5074810;28;19938;-87
2023/01/14 03:54:27;;;;;;;;;;;1.20;91.10;;;;;;5073751;28;19947;-87
2023/01/14 03:57:03;;;;;;;;;;;1.10;90.80;;;;;;5074534;28;19959;-87
2023/01/14 03:59:28;;;;;;;;;;;1.00;90.40;;;;;;5074949;28;20022;-87
2023/01/14 04:01:54;;;;;;;;;;;0.80;90.30;;;;;;5074189;28;20336;-87
2023/01/14 04:04:22;;;;;;;;;;;0.70;90.40;;;;;;5074217;28;19947;-87
2023/01/14 04:06:47;;;;;;;;;;;0.70;91.10;;;;;;5074484;28;20399;-87
2023/01/14 04:09:13;;;;;;;;;;;0.70;91.70;;;;;;5074466;28;19948;-87
2023/01/14 04:11:39;;;;;;;;;;;0.70;92.20;;;;;;5074420;28;19946;-87
2023/01/14 04:16:49;;;;;;;;;;;0.80;92.60;;;;;;5074030;28;19992;-87
2023/01/14 04:19:14;;;;;;;;;;;0.80;92.50;;;;;;5074524;28;20334;-87
2023/01/14 04:21:40;;;;;;;;;;;0.80;92.70;;;;;;5074225;28;20435;-87
2023/01/14 04:24:05;;;;;;;;;;;0.80;92.80;;;;;;5072639;28;20425;-87
2023/01/14 04:26:31;;;;;;;;;;;1.00;93.00;;;;;;5074117;28;19937;-87
2023/01/14 04:28:56;;;;;;;;;;;1.10;92.90;;;;;;5072771;28;19985;-87
2023/01/14 04:31:22;;;;;;;;;;;1.10;92.60;;;;;;5074001;28;20025;-87
2023/01/14 04:33:48;;;;;;;;;;;1.10;92.60;;;;;;5073674;28;19995;-87
2023/01/14 04:36:13;;;;;;;;;;;1.20;92.40;;;;;;5073794;28;20013;-87
2023/01/14 04:38:39;;;;;;;;;;;1.30;92.10;;;;;;5073858;28;19946;-87
2023/01/14 04:41:04;;;;;;;;;;;1.30;91.50;;;;;;5073838;28;19939;-87
2023/01/14 04:43:30;;;;;;;;;;;1.30;90.40;;;;;;5073444;28;19949;-87
2023/01/14 04:45:56;;;;;;;;;;;1.30;90.50;;;;;;5073548;28;19945;-87
2023/01/14 04:48:22;;;;;;;;;;;1.20;90.60;;;;;;5073665;28;19965;-87
2023/01/14 04:50:50;;;;;;;;;;;1.10;90.70;;;;;;5073674;28;20396;-87
2023/01/14 04:53:17;;;;;;;;;;;1.00;91.00;;;;;;5073335;28;19961;-87
2023/01/14 04:55:46;;;;;;;;;;;0.90;91.70;;;;;;5070147;28;20001;-86
2023/01/14 04:58:13;;;;;;;;;;;0.90;92.30;;;;;;5052239;28;20357;-87
2023/01/14 05:00:39;;;;;;;;;;;1.00;92.00;;;;;;5053507;28;19948;-87
2023/01/14 05:03:05;;;;;;;;;;;1.10;91.20;;;;;;5053781;28;20037;-87
2023/01/14 05:05:31;;;;;;;;;;;1.10;91.00;;;;;;5055302;28;20037;-87
2023/01/14 05:07:57;;;;;;;;;;;1.00;91.00;;;;;;5073425;28;20447;-87
2023/01/14 05:10:23;;;;;;;;;;;1.00;91.00;;;;;;5073605;28;19949;-87
2023/01/14 05:12:57;;;;;;;;;;;1.00;90.70;;;;;;5072829;28;20461;-87
2023/01/14 05:15:27;;;;;;;;;;;1.00;91.30;;;;;;5051571;28;20346;-87
2023/01/14 05:17:53;;;;;;;;;;;1.00;91.80;;;;;;5053239;28;19944;-87
2023/01/14 05:20:19;;;;;;;;;;;1.00;91.40;;;;;;5053199;28;19946;-87
2023/01/14 05:22:45;;;;;;;;;;;0.90;91.40;;;;;;5053388;28;19964;-87
2023/01/14 05:25:10;;;;;;;;;;;0.90;91.10;;;;;;5070262;28;19948;-87
2023/01/14 05:27:36;;;;;;;;;;;0.90;91.00;;;;;;5073135;28;19943;-87
2023/01/14 05:30:04;;;;;;;;;;;0.90;90.90;;;;;;5073103;28;20302;-87
2023/01/14 05:32:30;;;;;;;;;;;0.90;90.90;;;;;;5073050;28;20455;-87
2023/01/14 05:34:55;;;;;;;;;;;0.80;90.20;;;;;;5072716;28;19955;-87
2023/01/14 05:37:21;;;;;;;;;;;0.70;90.60;;;;;;5072901;28;19944;-87
2023/01/14 05:39:46;;;;;;;;;;;0.60;92.00;;;;;;5073000;28;20061;-87
2023/01/14 05:47:41;;;;;;;;;;;0.60;92.20;;;;;;5073001;28;20026;-87
2023/01/14 05:50:08;;;;;;;;;;;0.60;92.30;;;;;;5058415;28;19989;-87
2023/01/14 05:52:34;;;;;;;;;;;0.60;92.30;;;;;;5052712;28;19954;-87
2023/01/14 05:54:59;;;;;;;;;;;0.50;92.40;;;;;;5067459;28;20006;-87
2023/01/14 05:57:24;;;;;;;;;;;0.50;92.50;;;;;;5072852;28;19939;-88
2023/01/14 05:59:50;;;;;;;;;;;0.60;92.60;;;;;;5072647;28;19941;-87
2023/01/14 06:07:44;;;;;;;;;;;0.50;92.90;;;;;;5072704;28;19948;-87
2023/01/14 06:10:09;;;;;;;;;;;0.60;93.30;;;;;;5072696;28;20020;-88
2023/01/14 06:15:19;;;;;;;;;;;0.80;93.20;;;;;;5072199;28;20008;-88
2023/01/14 06:17:46;;;;;;;;;;;0.90;93.20;;;;;;5072680;28;19946;-88
2023/01/14 06:20:12;;;;;;;;;;;1.00;93.00;;;;;;5072048;28;20427;-87
2023/01/14 06:22:38;;;;;;;;;;;0.90;92.80;;;;;;5072593;28;19948;-87
2023/01/14 06:25:04;;;;;;;;;;;1.00;92.90;;;;;;5073872;28;19941;-87
2023/01/14 06:27:29;;;;;;;;;;;1.00;93.20;;;;;;5075203;28;19997;-87
2023/01/14 06:29:55;;;;;;;;;;;1.00;93.50;;;;;;5066459;28;20311;-87
2023/01/14 06:32:20;;;;;;;;;;;1.10;93.70;;;;;;5075713;28;20078;-88
2023/01/14 06:34:46;;;;;;;;;;;1.10;93.90;;;;;;5075758;28;20320;-88
2023/01/14 06:37:11;;;;;;;;;;;1.20;94.10;;;;;;5075898;28;19962;-87
2023/01/14 06:39:37;;;;;;;;;;;1.00;93.60;;;;;;5075435;28;19956;-88
2023/01/14 06:42:02;;;;;;;;;;;1.00;93.60;;;;;;5074348;28;19940;-88
2023/01/14 06:44:28;;;;;;;;;;;0.90;93.70;;;;;;5075321;28;19952;-87
2023/01/14 06:46:54;;;;;;;;;;;0.90;93.70;;;;;;5074123;28;19959;-88
2023/01/14 06:49:20;;;;;;;;;;;1.00;93.50;;;;;;5072655;28;19937;-88
2023/01/14 06:51:45;;;;;;;;;;;1.00;93.00;;;;;;5075014;28;19947;-88
2023/01/14 06:54:12;;;;;;;;;;;1.00;92.80;;;;;;5074991;28;19960;-88
2023/01/14 06:56:37;;;;;;;;;;;1.10;93.20;;;;;;5075521;28;19947;-88
2023/01/14 06:59:03;;;;;;;;;;;1.20;93.10;;;;;;5057321;28;19942;-86
2023/01/14 07:01:28;;;;;;;;;;;1.20;93.20;;;;;;5075250;28;20009;-87
2023/01/14 07:03:54;;;;;;;;;;;1.40;93.20;;;;;;5069045;28;20369;-87
2023/01/14 07:06:19;;;;;;;;;;;1.50;92.30;;;;;;5072721;28;19980;-86
2023/01/14 07:08:45;;;;;;;;;;;1.50;91.60;;;;;;5075709;28;19947;-87
2023/01/14 07:11:12;;;;;;;;;;;1.40;91.60;;;;;;5074702;28;20397;-87
2023/01/14 07:13:37;;;;;;;;;;;1.30;91.50;;;;;;5072624;28;20449;-87
2023/01/14 07:16:03;;;;;;;;;;;1.20;91.10;;;;;;5074300;28;19972;-86
2023/01/14 07:18:29;;;;;;;;;;;1.20;90.60;;;;;;5075259;28;19980;-87
2023/01/14 07:20:56;;;;;;;;;;;1.00;91.90;;;;;;5075426;28;20456;-86
2023/01/14 07:23:21;;;;;;;;;;;1.00;92.90;;;;;;5073840;28;19962;-87
2023/01/14 07:25:47;;;;;;;;;;;1.10;92.70;;;;;;5074167;28;19943;-87
2023/01/14 07:28:12;;;;;;;;;;;1.10;92.10;;;;;;5075051;28;20358;-87
2023/01/14 07:30:38;;;;;;;;;;;1.20;91.60;;;;;;5074438;28;19946;-87
2023/01/14 07:33:03;;;;;;;;;;;1.20;91.40;;;;;;5072912;28;19941;-87
2023/01/14 07:35:29;;;;;;;;;;;1.30;91.50;;;;;;5073965;28;19965;-87
2023/01/14 07:37:56;;;;;;;;;;;1.30;91.40;;;;;;5072586;28;20399;-87
2023/01/14 07:40:21;;;;;;;;;;;1.20;91.40;;;;;;5074295;28;19950;-87
2023/01/14 07:42:47;;;;;;;;;;;1.20;91.30;;;;;;5069919;28;20436;-87
2023/01/14 07:45:12;;;;;;;;;;;1.30;91.30;;;;;;5071696;28;19945;-88
2023/01/14 07:47:38;;;;;;;;;;;1.30;91.60;;;;;;5073939;28;19981;-87
2023/01/14 07:50:04;;;;;;;;;;;1.30;91.90;;;;;;5072498;28;20416;-88
2023/01/14 07:52:29;;;;;;;;;;;1.40;91.80;;;;;;5072096;28;20116;-87
2023/01/14 07:54:55;;;;;;;;;;;1.40;91.70;;;;;;5073329;28;19942;-88
2023/01/14 07:57:20;;;;;;;;;;;1.50;91.80;;;;;;5072702;28;19997;-88
2023/01/14 07:59:46;;;;;;;;;;;1.60;91.70;;;;;;5065182;28;20014;-88
2023/01/14 08:02:12;;;;;;;;;;;1.70;91.30;;;;;;5072030;28;20045;-88
2023/01/14 08:04:38;;;;;;;;;;;1.70;91.50;;;;;;5072638;28;19947;-88
2023/01/14 08:07:07;;;;;;;;;;;1.80;91.20;;;;;;5072684;28;19948;-88
2023/01/14 08:09:33;;;;;;;;;;;1.80;91.20;;;;;;5069959;28;20321;-88
2023/01/14 08:11:58;;;;;;;;;;;2.00;90.80;;;;;;5070113;28;20035;-88
2023/01/14 08:14:24;;;;;;;;;;;2.20;90.00;;;;;;5071922;28;19983;-88
2023/01/14 08:16:49;;;;;;;;;;;2.30;89.80;;;;;;5073344;28;19966;-88
2023/01/14 08:19:17;;;;;;;;;;;2.40;89.90;;;;;;5053297;28;19968;-88
2023/01/14 08:21:42;;;;;;;;;;;2.40;89.60;;;;;;5073142;28;19943;-89
2023/01/14 08:24:08;;;;;;;;;;;2.40;89.80;;;;;;5061280;28;19948;-88
2023/01/14 08:26:33;;;;;;;;;;;2.50;90.20;;;;;;5071969;28;19976;-89
2023/01/14 08:28:59;;;;;;;;;;;2.60;89.70;;;;;;5073015;28;20036;-88
2023/01/14 08:31:24;;;;;;;;;;;2.60;89.30;;;;;;5070143;28;19956;-88
2023/01/14 08:33:50;;;;;;;;;;;2.60;89.20;;;;;;5071600;28;20285;-88
2023/01/14 08:36:16;;;;;;;;;;;2.70;89.00;;;;;;5073355;28;20060;-88
2023/01/14 08:38:48;;;;;;;;;;;2.70;88.90;;;;;;5070866;28;20746;-88
2023/01/14 08:41:14;;;;;;;;;;;2.80;89.10;;;;;;5069244;28;19980;-88
2023/01/14 08:43:41;;;;;;;;;;;3.00;89.00;;;;;;5072435;28;20424;-88
2023/01/14 08:46:07;;;;;;;;;;;3.00;89.70;;;;;;5072368;28;19947;-88
2023/01/14 08:48:33;;;;;;;;;;;3.00;89.30;;;;;;5067938;28;19942;-88
2023/01/14 08:51:03;;;;;;;;;;;3.00;89.50;;;;;;5071967;28;19955;-89
2023/01/14 08:53:29;;;;;;;;;;;3.00;89.60;;;;;;5069672;28;20122;-88
2023/01/14 08:55:58;;;;;;;;;;;3.10;89.60;;;;;;5063243;28;20422;-88
2023/01/14 08:58:23;;;;;;;;;;;3.20;89.60;;;;;;5067683;28;19950;-88
2023/01/14 09:00:49;;;;;;;;;;;3.40;89.90;;;;;;5066761;28;20006;-88
2023/01/14 09:03:15;;;;;;;;;;;3.40;90.20;;;;;;5062197;28;20025;-88
2023/01/14 09:05:40;;;;;;;;;;;3.60;90.50;;;;;;5071284;28;19951;-89
2023/01/14 09:19:09;;;;;;;;;;;4.60;87.60;;;;;;5070242;28;20377;-87
2023/01/14 09:21:34;;;;;;;;;;;4.70;87.40;;;;;;5070683;28;20365;-87
2023/01/14 09:24:00;;;;;;;;;;;4.70;87.80;;;;;;5066314;28;19996;-88
2023/01/14 09:26:26;;;;;;;;;;;4.80;87.60;;;;;;5068220;28;19947;-87
2023/01/14 09:28:51;;;;;;;;;;;5.00;87.70;;;;;;5064278;28;19950;-87
2023/01/14 09:31:17;;;;;;;;;;;5.10;87.60;;;;;;5060075;28;20303;-87
2023/01/14 09:33:42;;;;;;;;;;;5.10;87.00;;;;;;5063569;28;19942;-87
2023/01/14 09:36:08;;;;;;;;;;;5.20;87.50;;;;;;5061135;28;19960;-87
2023/01/14 09:38:33;;;;;;;;;;;5.20;87.40;;;;;;5063893;28;19953;-88
2023/01/14 09:40:59;;;;;;;;;;;5.40;87.70;;;;;;5064414;28;20445;-88
2023/01/14 09:43:26;;;;;;;;;;;5.50;87.80;;;;;;5069825;28;19951;-87
2023/01/14 09:45:55;;;;;;;;;;;5.70;87.50;;;;;;5065511;28;19951;-87
2023/01/14 09:48:22;;;;;;;;;;;5.90;87.20;;;;;;5059531;28;19953;-87
2023/01/14 09:51:10;;;;;;;;;;;6.20;84.50;;;;;;5066395;28;20407;-87
2023/01/14 09:53:36;;;;;;;;;;;6.40;81.90;;;;;;5069217;28;19983;-87
2023/01/14 09:56:04;;;;;;;;;;;6.50;82.20;;;;;;5059883;28;20354;-87
2023/01/14 09:58:35;;;;;;;;;;;6.70;82.80;;;;;;5067786;28;19975;-87
2023/01/14 10:01:06;;;;;;;;;;;6.90;82.10;;;;;;5068727;28;19981;-87
2023/01/14 10:03:34;;;;;;;;;;;7.00;82.30;;;;;;5067682;28;20406;-88
2023/01/14 10:06:08;;;;;;;;;;;7.30;84.10;;;;;;5061810;28;19946;-88
2023/01/14 10:08:37;;;;;;;;;;;7.30;83.90;;;;;;5073055;28;19952;-87
2023/01/14 10:11:04;;;;;;;;;;;7.40;84.10;;;;;;5062458;28;19994;-87
2023/01/14 10:13:34;;;;;;;;;;;7.50;83.60;;;;;;5070557;28;19979;-87
2023/01/14 10:16:18;;;;;;;;;;;7.60;83.20;;;;;;5072134;28;19965;-87
2023/01/14 10:18:59;;;;;;;;;;;7.70;82.20;;;;;;5066882;28;19948;-87
2023/01/14 10:21:25;;;;;;;;;;;7.90;80.50;;;;;;5066368;28;19946;-87
2023/01/14 10:23:50;;;;;;;;;;;8.00;79.30;;;;;;5067217;28;19946;-87
2023/01/14 10:26:18;;;;;;;;;;;8.10;77.60;;;;;;5065654;28;19946;-87
2023/01/14 10:28:45;;;;;;;;;;;8.10;76.90;;;;;;5065514;28;19945;-87
2023/01/14 10:31:16;;;;;;;;;;;8.20;75.10;;;;;;5065670;28;19944;-87
2023/01/14 10:33:42;;;;;;;;;;;8.20;77.80;;;;;;5070176;28;20325;-87
2023/01/14 10:36:18;;;;;;;;;;;8.40;78.00;;;;;;5070244;28;19983;-87
2023/01/14 10:38:44;;;;;;;;;;;8.40;77.80;;;;;;5063298;28;20041;-87
2023/01/14 10:41:10;;;;;;;;;;;8.50;76.90;;;;;;5071868;28;20045;-87
2023/01/14 10:43:44;;;;;;;;;;;8.70;77.20;;;;;;5074169;28;19946;-87
2023/01/14 10:46:17;;;;;;;;;;;8.70;76.60;;;;;;5060748;28;19951;-87
2023/01/14 10:49:15;;;;;;;;;;;8.90;77.20;;;;;;5068311;28;19984;-87
2023/01/14 10:51:47;;;;;;;;;;;9.10;76.20;;;;;;5037282;28;20303;-87
2023/01/14 10:54:15;;;;;;;;;;;9.30;76.60;;;;;;5070492;28;20456;-87
2023/01/14 10:56:51;;;;;;;;;;;9.40;75.90;;;;;;5061744;28;19969;-87
2023/01/14 10:59:28;;;;;;;;;;;9.40;74.50;;;;;;5073840;28;20444;-87
2023/01/14 11:01:54;;;;;;;;;;;9.50;74.00;;;;;;5068509;28;19950;-87
2023/01/14 11:04:22;;;;;;;;;;;9.60;73.10;;;;;;5074225;28;19983;-87
2023/01/14 11:06:47;;;;;;;;;;;9.70;72.60;;;;;;5057643;28;19934;-87
2023/01/14 11:09:17;;;;;;;;;;;9.70;72.70;;;;;;5055611;28;19991;-86
2023/01/14 11:11:45;;;;;;;;;;;10.00;72.30;;;;;;5056677;28;20412;-87
2023/01/14 11:14:26;;;;;;;;;;;10.40;71.90;;;;;;5070634;28;19967;-87
2023/01/14 11:16:52;;;;;;;;;;;10.60;71.50;;;;;;5069471;28;20237;-87
2023/01/14 11:19:22;;;;;;;;;;;10.80;71.60;;;;;;5072825;28;19989;-87
2023/01/14 11:21:55;;;;;;;;;;;10.90;71.60;;;;;;5067244;28;19992;-87
2023/01/14 11:24:24;;;;;;;;;;;11.00;70.80;;;;;;5059178;28;19987;-87
2023/01/14 11:26:58;;;;;;;;;;;11.10;70.50;;;;;;5055328;28;20030;-87
2023/01/14 11:29:24;;;;;;;;;;;11.20;68.30;;;;;;5064713;28;20418;-87
2023/01/14 11:31:52;;;;;;;;;;;11.20;66.60;;;;;;5073074;28;20416;-86
2023/01/14 11:34:26;;;;;;;;;;;11.20;66.10;;;;;;5057704;28;19944;-87
2023/01/14 11:37:00;;;;;;;;;;;11.50;66.90;;;;;;5054934;28;19954;-87
2023/01/14 11:39:26;;;;;;;;;;;11.90;65.60;;;;;;5055025;28;20331;-87
2023/01/14 11:41:51;;;;;;;;;;;12.30;64.40;;;;;;5054948;28;19985;-87
2023/01/14 11:44:22;;;;;;;;;;;12.70;63.40;;;;;;5054979;28;19937;-87
2023/01/14 11:47:11;;;;;;;;;;;13.10;61.90;;;;;;5054922;28;20397;-87
2023/01/14 11:49:36;;;;;;;;;;;13.50;60.90;;;;;;5054915;28;19943;-88
2023/01/14 11:52:03;;;;;;;;;;;13.90;58.80;;;;;;5055055;28;19949;-87
2023/01/14 11:54:33;;;;;;;;;;;14.30;57.70;;;;;;5054912;28;20042;-88
2023/01/14 11:56:59;;;;;;;;;;;14.80;56.90;;;;;;5054637;28;19963;-88
2023/01/14 11:59:37;;;;;;;;;;;15.40;55.80;;;;;;5054651;28;20399;-88
2023/01/14 12:02:02;;;;;;;;;;;15.90;53.50;;;;;;5054548;28;19934;-88
2023/01/14 12:04:34;;;;;;;;;;;16.70;51.00;;;;;;5054603;28;19948;-87
2023/01/14 12:07:11;;;;;;;;;;;17.20;49.50;;;;;;5054570;28;19937;-87
2023/01/14 12:09:41;;;;;;;;;;;17.30;49.10;;;;;;5054504;28;19940;-87
2023/01/14 12:12:15;;;;;;;;;;;17.90;48.20;;;;;;5054479;28;19943;-88
2023/01/14 12:17:40;;;;;;;;;;;19.00;45.00;;;;;;5054305;28;20434;-87
2023/01/14 12:20:12;;;;;;;;;;;19.60;43.80;;;;;;5054277;28;20055;-87
2023/01/14 12:22:49;;;;;;;;;;;20.10;42.40;;;;;;5065301;28;19946;-87
2023/01/14 12:25:15;;;;;;;;;;;19.80;43.80;;;;;;5074136;28;19966;-87
2023/01/14 12:27:46;;;;;;;;;;;20.10;42.50;;;;;;5074099;28;20317;-87
2023/01/14 12:30:17;;;;;;;;;;;20.10;42.00;;;;;;5074079;28;20037;-87
2023/01/14 12:32:46;;;;;;;;;;;20.10;41.50;;;;;;5074053;28;19941;-87
2023/01/14 12:35:14;;;;;;;;;;;20.20;41.40;;;;;;5073955;28;19940;-87
2023/01/14 12:45:41;;;;;;;;;;;20.50;40.80;;;;;;5073916;28;19982;-87
2023/01/14 12:46:22;;;;;;;;;;;21.60;38.50;;;;;;5074144;28;19992;-87
2023/01/14 12:48:48;;;;;;;;;;;21.50;39.30;;;;;;5073695;28;19938;-87
2023/01/14 12:51:16;;;;;;;;;;;21.80;38.60;;;;;;5071576;28;19947;-88
2023/01/14 12:53:44;;;;;;;;;;;21.30;38.50;;;;;;5053576;28;19963;-87
2023/01/14 12:56:17;;;;;;;;;;;21.60;39.20;;;;;;5053439;28;20013;-88
2023/01/14 12:58:51;;;;;;;;;;;22.10;37.80;;;;;;5053486;28;19952;-87
2023/01/14 13:01:21;;;;;;;;;;;22.60;37.50;;;;;;5053560;28;19936;-88
2023/01/14 13:03:48;;;;;;;;;;;22.40;37.40;;;;;;5053499;28;20146;-88
2023/01/14 13:06:17;;;;;;;;;;;22.90;36.70;;;;;;5053671;28;19949;-88
2023/01/14 13:08:48;;;;;;;;;;;22.40;36.80;;;;;;5053346;28;19940;-88
2023/01/14 13:11:18;;;;;;;;;;;21.50;38.70;;;;;;5053350;28;19940;-87
2023/01/14 13:13:49;;;;;;;;;;;22.10;38.00;;;;;;5053134;28;19998;-88
2023/01/14 13:16:30;;;;;;;;;;;22.20;37.70;;;;;;5053228;28;19966;-87
2023/01/14 13:18:57;;;;;;;;;;;21.80;38.80;;;;;;5053226;28;20039;-88
2023/01/14 13:21:42;;;;;;;;;;;23.00;36.40;;;;;;5037807;28;19943;-88
2023/01/14 13:24:37;;;;;;;;;;;23.40;36.10;;;;;;5072734;28;20033;-88
2023/01/14 13:27:38;;;;;;;;;;;23.60;35.60;;;;;;5051467;28;19943;-88
2023/01/14 13:30:19;;;;;;;;;;;24.00;34.80;;;;;;4972122;28;20084;-88
2023/01/14 13:32:59;;;;;;;;;;;24.10;34.60;;;;;;5062203;28;20084;-87
2023/01/14 13:35:26;;;;;;;;;;;23.30;35.40;;;;;;5072297;28;19947;-87
2023/01/14 13:37:52;;;;;;;;;;;22.30;37.20;;;;;;5073079;28;19966;-87
2023/01/14 13:40:19;;;;;;;;;;;21.20;38.80;;;;;;5055127;28;19938;-87
2023/01/14 13:42:54;;;;;;;;;;;20.50;40.30;;;;;;5073028;28;19939;-87
2023/01/14 13:45:26;;;;;;;;;;;19.90;41.50;;;;;;5073013;28;19934;-87
2023/01/14 13:47:52;;;;;;;;;;;19.50;42.50;;;;;;5072933;28;19940;-87
2023/01/14 13:50:23;;;;;;;;;;;19.30;43.30;;;;;;5072958;28;19943;-87
2023/01/14 13:53:01;;;;;;;;;;;18.40;45.10;;;;;;5058376;28;20017;-87
2023/01/14 13:55:30;;;;;;;;;;;18.30;46.30;;;;;;5052696;28;19981;-87
2023/01/14 13:58:00;;;;;;;;;;;18.20;46.70;;;;;;5052841;28;19940;-87
2023/01/14 14:00:33;;;;;;;;;;;18.40;45.90;;;;;;5052865;28;19962;-87
2023/01/14 14:03:18;;;;;;;;;;;18.50;46.00;;;;;;5052809;28;19941;-87
2023/01/14 14:05:44;;;;;;;;;;;18.40;46.20;;;;;;5053081;28;19978;-87
2023/01/14 14:08:10;;;;;;;;;;;18.90;45.50;;;;;;5052746;28;19951;-88
2023/01/14 14:10:39;;;;;;;;;;;19.10;44.80;;;;;;5052772;28;19942;-87
2023/01/14 14:16:11;;;;;;;;;;;20.30;42.40;;;;;;5052837;28;19969;-88
2023/01/14 14:18:40;;;;;;;;;;;20.80;41.30;;;;;;5052615;28;19946;-88
2023/01/14 14:21:12;;;;;;;;;;;20.90;40.90;;;;;;5054811;28;20314;-88
2023/01/14 14:23:41;;;;;;;;;;;21.00;41.50;;;;;;5072948;28;19935;-88
2023/01/14 14:26:14;;;;;;;;;;;21.10;41.60;;;;;;5072575;28;19949;-87
2023/01/14 14:28:41;;;;;;;;;;;20.60;42.30;;;;;;5072595;28;20341;-88
2023/01/14 14:31:08;;;;;;;;;;;20.40;42.60;;;;;;5072573;28;19943;-87
2023/01/14 14:33:40;;;;;;;;;;;20.30;42.20;;;;;;5072595;28;20482;-88
2023/01/14 14:36:08;;;;;;;;;;;20.00;41.10;;;;;;5072433;28;19960;-88
2023/01/14 14:38:35;;;;;;;;;;;20.30;40.90;;;;;;5072818;28;19989;-88
2023/01/14 14:41:04;;;;;;;;;;;20.40;41.20;;;;;;5072516;28;19946;-87
2023/01/14 14:43:30;;;;;;;;;;;20.40;42.10;;;;;;5072465;28;20384;-88
2023/01/14 14:46:18;;;;;;;;;;;20.10;42.40;;;;;;5055868;28;19991;-87
2023/01/14 14:48:44;;;;;;;;;;;19.90;42.90;;;;;;5075457;28;19979;-88
2023/01/14 14:51:21;;;;;;;;;;;19.80;43.30;;;;;;5055294;28;19957;-88
2023/01/14 14:53:47;;;;;;;;;;;19.60;43.80;;;;;;5076182;28;20011;-89
2023/01/14 14:56:15;;;;;;;;;;;19.30;44.60;;;;;;5075695;28;19959;-88
2023/01/14 14:58:50;;;;;;;;;;;19.10;44.70;;;;;;5075907;28;19949;-88
2023/01/14 15:01:16;;;;;;;;;;;18.50;45.90;;;;;;5076077;28;19941;-88
2023/01/14 15:03:43;;;;;;;;;;;18.00;47.50;;;;;;5076033;28;19994;-88
2023/01/14 15:06:11;;;;;;;;;;;17.40;49.00;;;;;;5075732;28;19934;-88
2023/01/14 15:08:39;;;;;;;;;;;17.30;49.40;;;;;;5075737;28;19937;-88
2023/01/14 15:11:07;;;;;;;;;;;17.00;50.20;;;;;;5075657;28;20036;-88
2023/01/14 15:13:36;;;;;;;;;;;16.90;50.60;;;;;;5075423;28;20438;-88
2023/01/14 15:16:10;;;;;;;;;;;16.80;51.00;;;;;;5075432;28;19958;-88
2023/01/14 15:18:50;;;;;;;;;;;17.00;50.60;;;;;;5075575;28;19940;-88
2023/01/14 15:21:19;;;;;;;;;;;16.80;50.70;;;;;;5058055;28;19953;-88
2023/01/14 15:23:52;;;;;;;;;;;16.90;50.40;;;;;;5055334;28;20396;-89